createdAt,value
2023-05-16T00:00:02.277Z,99862.68
2023-05-16T00:02:31.558Z,99866.55
2023-05-16T00:04:58.461Z,99869.23
2023-05-16T00:07:25.361Z,99868.64
2023-05-16T00:09:52.265Z,99868.71
2023-05-16T00:12:19.988Z,99870.77
2023-05-16T00:14:48.109Z,99872.29
2023-05-16T00:17:17.796Z,99873.80
2023-05-16T00:19:44.983Z,99878.22
2023-05-16T00:22:11.909Z,99877.73
2023-05-16T00:24:39.567Z,99881.64
2023-05-16T00:27:07.150Z,99885.65
2023-05-16T00:29:37.258Z,99882.28
2023-05-16T00:32:04.715Z,99882.82
2023-05-16T00:34:31.828Z,99880.85
2023-05-16T00:36:58.745Z,99881.20
2023-05-16T00:39:25.621Z,99875.64
2023-05-16T00:41:52.667Z,99873.00
2023-05-16T00:44:20.172Z,99870.92
2023-05-16T00:46:47.599Z,99873.27
2023-05-16T00:49:14.499Z,99871.78
2023-05-16T00:51:41.611Z,99868.47
2023-05-16T00:54:08.405Z,99872.29
2023-05-16T00:56:35.408Z,99871.20
2023-05-16T00:59:02.208Z,99869.73
2023-05-16T01:01:29.028Z,99875.84
2023-05-16T01:03:56.092Z,99873.02
2023-05-16T01:06:23.311Z,99869.97
2023-05-16T01:08:50.431Z,99869.12
2023-05-16T01:11:27.316Z,99864.66
2023-05-16T01:14:09.758Z,99864.14
2023-05-16T01:16:44.783Z,99864.88
2023-05-16T01:19:32.832Z,99864.14
2023-05-16T01:22:05.725Z,99864.34
2023-05-16T01:24:32.731Z,99860.36
2023-05-16T01:26:59.663Z,99859.26
2023-05-16T01:29:26.936Z,99854.86
2023-05-16T01:31:53.953Z,99849.67
2023-05-16T01:34:21.064Z,99851.70
2023-05-16T01:36:53.661Z,99848.90
2023-05-16T01:39:44.556Z,99853.08
2023-05-16T01:42:15.667Z,99849.02
2023-05-16T01:45:07.606Z,99846.34
2023-05-16T01:47:34.492Z,99846.02
2023-05-16T01:50:14.752Z,99843.98
2023-05-16T01:53:04.280Z,99840.55
2023-05-16T01:55:52.115Z,99838.04
2023-05-16T01:58:23.974Z,99834.72
2023-05-16T02:00:53.658Z,99830.39
2023-05-16T02:03:20.823Z,99830.02
2023-05-16T02:05:47.863Z,99831.20
2023-05-16T02:08:14.740Z,99834.45
2023-05-16T02:10:42.093Z,99830.61
2023-05-16T02:13:08.956Z,99829.83
2023-05-16T02:15:35.883Z,99829.33
2023-05-16T02:18:02.822Z,99828.74
2023-05-16T02:20:29.885Z,99828.44
2023-05-16T02:22:56.779Z,99829.85
2023-05-16T02:25:25.187Z,99826.44
2023-05-16T02:27:52.306Z,99828.00
2023-05-16T02:30:19.317Z,99827.11
2023-05-16T02:32:46.199Z,99828.15
2023-05-16T02:35:13.123Z,99829.66
2023-05-16T02:37:40.906Z,99826.02
2023-05-16T02:40:09.171Z,99832.77
2023-05-16T02:42:36.814Z,99833.99
2023-05-16T02:45:04.367Z,99832.89
2023-05-16T02:47:31.246Z,99829.98
2023-05-16T02:49:58.109Z,99828.44
2023-05-16T02:52:25.217Z,99827.94
2023-05-16T02:55:04.716Z,99831.73
2023-05-16T02:57:39.048Z,99836.27
2023-05-16T03:00:07.039Z,99833.98
2023-05-16T03:02:34.113Z,99833.34
2023-05-16T03:05:01.315Z,99834.27
2023-05-16T03:07:28.287Z,99835.35
2023-05-16T03:09:55.329Z,99834.84
2023-05-16T03:12:22.199Z,99830.44
2023-05-16T03:14:49.219Z,99830.29
2023-05-16T03:17:16.003Z,99828.71
2023-05-16T03:19:42.795Z,99827.34
2023-05-16T03:22:09.760Z,99823.34
2023-05-16T03:24:36.562Z,99820.54
2023-05-16T03:27:04.758Z,99821.66
2023-05-16T03:29:31.635Z,99826.70
2023-05-16T03:31:58.568Z,99821.59
2023-05-16T03:34:25.565Z,99827.70
2023-05-16T03:36:52.564Z,99831.45
2023-05-16T03:39:19.555Z,99834.49
2023-05-16T03:41:46.452Z,99834.69
2023-05-16T03:44:13.255Z,99834.14
2023-05-16T03:46:40.049Z,99833.02
2023-05-16T03:49:06.957Z,99834.38
2023-05-16T03:51:34.272Z,99839.70
2023-05-16T03:54:01.205Z,99849.23
2023-05-16T03:56:28.266Z,99852.20
2023-05-16T03:58:55.268Z,99854.18
2023-05-16T04:01:22.848Z,99858.75
2023-05-16T04:03:50.940Z,99862.64
2023-05-16T04:06:18.122Z,99864.80
2023-05-16T04:08:45.094Z,99867.64
2023-05-16T04:11:12.335Z,99876.98
2023-05-16T04:13:39.250Z,99881.88
2023-05-16T04:16:07.070Z,99887.98
2023-05-16T04:18:34.055Z,99894.04
2023-05-16T04:21:01.285Z,99891.59
2023-05-16T04:23:28.381Z,99897.56
2023-05-16T04:25:57.125Z,99900.25
2023-05-16T04:28:23.944Z,99902.81
2023-05-16T04:30:51.439Z,99908.34
2023-05-16T04:33:18.972Z,99910.60
2023-05-16T04:35:45.754Z,99908.79
2023-05-16T04:38:12.564Z,99909.88
2023-05-16T04:40:40.575Z,99911.29
2023-05-16T04:43:08.374Z,99917.82
2023-05-16T04:45:37.399Z,99922.98
2023-05-16T04:48:04.804Z,99920.52
2023-05-16T04:50:31.877Z,99923.41
2023-05-16T04:52:58.776Z,99916.72
2023-05-16T04:55:26.166Z,99912.00
2023-05-16T04:57:53.692Z,99905.66
2023-05-16T05:00:21.252Z,99903.45
2023-05-16T05:02:48.183Z,99904.51
2023-05-16T05:05:15.187Z,99902.52
2023-05-16T05:07:42.957Z,99898.27
2023-05-16T05:10:11.116Z,99896.73
2023-05-16T05:12:38.036Z,99903.67
2023-05-16T05:15:06.601Z,99899.23
2023-05-16T05:17:33.761Z,99901.77
2023-05-16T05:20:02.941Z,99901.17
2023-05-16T05:22:30.524Z,99897.18
2023-05-16T05:24:57.340Z,99900.73
2023-05-16T05:27:25.652Z,99905.34
2023-05-16T05:29:52.449Z,99907.92
2023-05-16T05:32:19.299Z,99913.52
2023-05-16T05:34:46.053Z,99920.35
2023-05-16T05:37:12.843Z,99919.92
2023-05-16T05:39:39.653Z,99916.86
2023-05-16T05:42:06.963Z,99919.80
2023-05-16T05:44:33.851Z,99916.52
2023-05-16T05:47:00.833Z,99915.89
2023-05-16T05:49:27.676Z,99913.04
2023-05-16T05:51:54.642Z,99908.21
2023-05-16T05:54:21.485Z,99904.65
2023-05-16T05:56:48.387Z,99911.53
2023-05-16T05:59:15.644Z,99912.01
2023-05-16T06:01:44.152Z,99919.17
2023-05-16T06:04:11.339Z,99914.08
2023-05-16T06:06:38.639Z,99911.88
2023-05-16T06:09:05.828Z,99909.73
2023-05-16T06:11:32.842Z,99903.71
2023-05-16T06:13:59.668Z,99899.61
2023-05-16T06:16:26.676Z,99894.92
2023-05-16T06:18:53.674Z,99893.48
2023-05-16T06:21:20.687Z,99889.13
2023-05-16T06:23:47.866Z,99891.15
2023-05-16T06:26:14.767Z,99889.27
2023-05-16T06:28:41.586Z,99885.98
2023-05-16T06:31:08.538Z,99886.33
2023-05-16T06:33:35.848Z,99882.21
2023-05-16T06:36:02.673Z,99881.61
2023-05-16T06:38:29.580Z,99883.55
2023-05-16T06:40:56.472Z,99874.33
2023-05-16T06:43:23.413Z,99878.33
2023-05-16T06:45:50.311Z,99874.89
2023-05-16T06:48:18.381Z,99866.77
2023-05-16T06:50:52.406Z,99866.98
2023-05-16T06:53:19.333Z,99863.98
2023-05-16T06:55:47.083Z,99861.30
2023-05-16T06:58:14.125Z,99879.31
2023-05-16T07:00:41.934Z,99883.17
2023-05-16T07:03:08.970Z,99879.55
2023-05-16T07:05:36.300Z,99876.66
2023-05-16T07:08:04.637Z,99872.13
2023-05-16T07:10:33.394Z,99870.73
2023-05-16T07:13:01.656Z,99881.36
2023-05-16T07:15:28.931Z,99880.95
2023-05-16T07:17:56.219Z,99878.27
2023-05-16T07:20:23.404Z,99877.00
2023-05-16T07:22:50.369Z,99880.15
2023-05-16T07:25:17.512Z,99885.50
2023-05-16T07:27:45.443Z,99893.33
2023-05-16T07:30:13.577Z,99899.23
2023-05-16T07:32:41.146Z,99895.56
2023-05-16T07:35:09.447Z,99896.52
2023-05-16T07:37:36.583Z,99898.16
2023-05-16T07:40:04.017Z,99899.65
2023-05-16T07:42:31.905Z,99901.71
2023-05-16T07:44:58.815Z,99905.98
2023-05-16T07:47:25.982Z,99901.00
2023-05-16T07:49:53.130Z,99903.66
2023-05-16T07:52:20.044Z,99908.34
2023-05-16T07:54:47.446Z,99909.02
2023-05-16T07:57:15.451Z,99916.58
2023-05-16T07:59:43.145Z,99915.66
2023-05-16T08:02:11.039Z,99914.42
2023-05-16T08:04:38.743Z,99911.83
2023-05-16T08:07:06.196Z,99903.89
2023-05-16T08:09:33.871Z,99908.47
2023-05-16T08:12:03.961Z,99909.98
2023-05-16T08:14:32.459Z,99917.77
2023-05-16T08:17:00.606Z,99925.66
2023-05-16T08:19:28.202Z,99926.68
2023-05-16T08:21:55.275Z,99924.98
2023-05-16T08:24:22.157Z,99926.79
2023-05-16T08:26:49.027Z,99930.60
2023-05-16T08:29:16.152Z,99924.24
2023-05-16T08:31:43.721Z,99925.00
2023-05-16T08:34:10.688Z,99920.16
2023-05-16T08:37:43.527Z,99922.36
2023-05-16T08:40:29.378Z,99917.81
2023-05-16T08:42:56.313Z,99924.50
2023-05-16T08:45:23.424Z,99923.23
2023-05-16T08:47:51.707Z,99918.94
2023-05-16T08:50:18.737Z,99911.51
2023-05-16T08:52:45.737Z,99914.28
2023-05-16T08:55:12.823Z,99908.56
2023-05-16T08:57:40.434Z,99910.31
2023-05-16T09:00:12.229Z,99912.25
2023-05-16T09:02:43.498Z,99906.25
2023-05-16T09:05:14.961Z,99907.51
2023-05-16T09:07:42.690Z,99914.08
2023-05-16T09:10:10.861Z,99918.92
2023-05-16T09:12:39.222Z,99917.41
2023-05-16T09:15:07.211Z,99901.75
2023-05-16T09:17:44.933Z,99915.15
2023-05-16T09:20:16.502Z,99907.48
2023-05-16T09:22:57.321Z,99913.73
2023-05-16T09:25:30.349Z,99907.09
2023-05-16T09:27:59.604Z,99911.23
2023-05-16T09:30:34.275Z,99914.84
2023-05-16T09:33:01.974Z,99917.57
2023-05-16T09:37:59.293Z,99917.77
2023-05-16T09:40:26.453Z,99914.63
2023-05-16T09:43:07.212Z,99916.54
2023-05-16T09:45:35.026Z,99913.16
2023-05-16T09:48:05.738Z,99912.67
2023-05-16T09:50:34.779Z,99917.09
2023-05-16T09:53:02.390Z,99923.05
2023-05-16T09:55:29.720Z,99928.80
2023-05-16T09:57:56.759Z,99927.88
2023-05-16T10:00:23.891Z,99928.46
2023-05-16T10:02:51.130Z,99933.11
2023-05-16T10:05:19.018Z,99937.11
2023-05-16T10:07:46.211Z,99935.74
2023-05-16T10:10:13.040Z,99920.98
2023-05-16T10:12:39.988Z,99924.50
2023-05-16T10:15:07.994Z,99919.14
2023-05-16T10:17:37.207Z,99925.54
2023-05-16T10:20:06.965Z,99920.23
2023-05-16T10:22:35.863Z,99917.20
2023-05-16T10:25:20.785Z,99925.57
2023-05-16T10:27:47.677Z,99921.94
2023-05-16T10:30:14.609Z,99917.67
2023-05-16T10:32:43.056Z,99911.07
2023-05-16T10:35:10.770Z,99909.61
2023-05-16T10:37:37.688Z,99914.81
2023-05-16T10:40:07.910Z,99911.10
2023-05-16T10:42:35.249Z,99906.17
2023-05-16T10:45:21.290Z,99909.67
2023-05-16T10:47:59.104Z,99904.99
2023-05-16T10:50:36.319Z,99908.91
2023-05-16T10:53:19.821Z,99913.13
2023-05-16T10:55:49.663Z,99903.90
2023-05-16T10:58:43.380Z,99896.59
2023-05-16T11:01:17.404Z,99894.86
2023-05-16T11:04:00.240Z,99897.05
2023-05-16T11:06:34.192Z,99898.93
2023-05-16T11:09:05.943Z,99889.56
2023-05-16T11:11:58.054Z,99893.71
2023-05-16T11:14:34.174Z,99894.48
2023-05-16T11:17:07.586Z,99888.55
2023-05-16T11:19:47.980Z,99879.58
2023-05-16T11:22:22.059Z,99879.08
2023-05-16T11:25:09.590Z,99879.66
2023-05-16T11:27:57.737Z,99876.50
2023-05-16T11:30:24.580Z,99885.42
2023-05-16T11:32:51.689Z,99884.00
2023-05-16T11:35:18.653Z,99878.73
2023-05-16T11:37:45.772Z,99879.16
2023-05-16T11:40:13.915Z,99885.63
2023-05-16T11:42:42.874Z,99885.84
2023-05-16T11:45:12.437Z,99886.52
2023-05-16T11:47:40.196Z,99895.23
2023-05-16T11:50:46.029Z,99894.45
2023-05-16T11:53:14.362Z,99893.72
2023-05-16T11:55:42.616Z,99896.86
2023-05-16T11:58:10.334Z,99895.44
2023-05-16T12:00:37.310Z,99894.23
2023-05-16T12:03:06.149Z,99896.65
2023-05-16T12:05:34.981Z,99897.85
2023-05-16T12:08:03.024Z,99897.42
2023-05-16T12:10:31.496Z,99896.54
2023-05-16T12:12:58.345Z,99895.97
2023-05-16T12:15:25.669Z,99898.56
2023-05-16T12:17:52.848Z,99897.50
2023-05-16T12:20:20.053Z,99898.83
2023-05-16T12:22:47.121Z,99906.52
2023-05-16T12:25:32.177Z,99905.96
2023-05-16T12:28:03.217Z,99903.16
2023-05-16T12:30:33.060Z,99899.89
2023-05-16T12:33:07.936Z,99900.52
2023-05-16T12:35:36.264Z,99899.48
2023-05-16T12:38:10.666Z,99899.12
2023-05-16T12:40:38.179Z,99899.05
2023-05-16T12:43:06.659Z,99896.33
2023-05-16T12:45:35.317Z,99900.71
2023-05-16T12:48:08.936Z,99897.00
2023-05-16T12:50:39.670Z,99893.36
2023-05-16T12:53:12.042Z,99891.83
2023-05-16T12:55:38.966Z,99888.98
2023-05-16T12:58:06.176Z,99889.25
2023-05-16T13:00:33.146Z,99884.00
2023-05-16T13:03:00.292Z,99884.95
2023-05-16T13:05:29.280Z,99880.96
2023-05-16T13:07:56.160Z,99882.67
2023-05-16T13:10:23.178Z,99882.00
2023-05-16T13:12:50.143Z,99882.02
2023-05-16T13:15:16.981Z,99880.93
2023-05-16T13:17:44.560Z,99880.89
2023-05-16T13:20:15.525Z,99883.63
2023-05-16T13:22:43.222Z,99888.27
2023-05-16T13:25:10.838Z,99887.55
2023-05-16T13:27:37.746Z,99889.48
2023-05-16T13:30:05.204Z,99885.52
2023-05-16T13:32:32.093Z,99883.82
2023-05-16T13:34:58.969Z,99874.33
2023-05-16T13:37:26.009Z,99873.30
2023-05-16T13:39:54.935Z,99871.91
2023-05-16T13:42:22.576Z,99870.30
2023-05-16T13:44:49.898Z,99870.88
2023-05-16T13:47:16.850Z,99871.95
2023-05-16T13:49:43.877Z,99871.77
2023-05-16T13:52:10.752Z,99879.23
2023-05-16T13:54:39.701Z,99873.70
2023-05-16T13:57:07.544Z,99874.48
2023-05-16T14:02:04.990Z,99878.33
2023-05-16T14:04:31.785Z,99883.52
2023-05-16T14:06:58.863Z,99878.51
2023-05-16T14:09:25.694Z,99884.90
2023-05-16T14:11:52.798Z,99890.00
2023-05-16T14:14:19.629Z,99884.69
2023-05-16T14:16:47.474Z,99881.16
2023-05-16T14:19:17.320Z,99879.46
2023-05-16T14:21:45.235Z,99880.23
2023-05-16T14:24:12.078Z,99880.61
2023-05-16T14:26:38.861Z,99882.60
2023-05-16T14:29:06.000Z,99882.38
2023-05-16T14:31:33.469Z,99880.05
2023-05-16T14:34:00.672Z,99888.27
2023-05-16T14:36:27.537Z,99882.52
2023-05-16T14:38:54.867Z,99883.53
2023-05-16T14:41:22.736Z,99882.69
2023-05-16T14:43:49.576Z,99883.85
2023-05-16T14:46:17.444Z,99887.10
2023-05-16T14:48:44.408Z,99886.80
2023-05-16T14:51:12.090Z,99888.86
2023-05-16T14:53:38.948Z,99888.01
2023-05-16T14:56:06.298Z,99885.19
2023-05-16T14:58:33.161Z,99880.77
2023-05-16T15:01:00.017Z,99880.45
2023-05-16T15:03:27.207Z,99885.19
2023-05-16T15:05:54.789Z,99880.07
2023-05-16T15:08:22.391Z,99884.02
2023-05-16T15:10:49.280Z,99881.45
2023-05-16T15:13:16.250Z,99879.05
2023-05-16T15:15:43.447Z,99881.77
2023-05-16T15:18:11.328Z,99878.27
2023-05-16T15:20:39.734Z,99881.74
2023-05-16T15:23:07.201Z,99880.48
2023-05-16T15:25:34.034Z,99882.70
2023-05-16T15:28:01.407Z,99889.23
2023-05-16T15:30:28.428Z,99884.61
2023-05-16T15:32:55.546Z,99886.05
2023-05-16T15:35:22.760Z,99886.55
2023-05-16T15:37:50.934Z,99886.34
2023-05-16T15:40:18.341Z,99885.37
2023-05-16T15:42:46.830Z,99888.86
2023-05-16T15:45:13.656Z,99889.76
2023-05-16T15:47:42.076Z,99889.55
2023-05-16T15:50:10.094Z,99888.19
2023-05-16T15:52:37.228Z,99885.66
2023-05-16T15:55:04.602Z,99885.19
2023-05-16T15:57:31.691Z,99884.09
2023-05-16T15:59:59.160Z,99886.70
2023-05-16T16:02:26.158Z,99887.74
2023-05-16T16:04:53.297Z,99891.20
2023-05-16T16:07:20.312Z,99892.04
2023-05-16T16:09:47.280Z,99892.08
2023-05-16T16:12:14.183Z,99891.36
2023-05-16T16:14:41.415Z,99888.92
2023-05-16T16:17:08.704Z,99889.92
2023-05-16T16:19:36.029Z,99887.71
2023-05-16T16:22:02.955Z,99887.98
2023-05-16T16:24:29.756Z,99882.96
2023-05-16T16:26:56.686Z,99881.20
2023-05-16T16:29:23.858Z,99880.48
2023-05-16T16:31:50.838Z,99879.80
2023-05-16T16:34:17.766Z,99884.52
2023-05-16T16:36:44.650Z,99883.29
2023-05-16T16:39:11.563Z,99882.88
2023-05-16T16:41:38.446Z,99883.57
2023-05-16T16:44:05.535Z,99887.18
2023-05-16T16:46:32.425Z,99892.52
2023-05-16T16:48:59.328Z,99893.02
2023-05-16T16:51:28.424Z,99890.30
2023-05-16T16:53:55.594Z,99890.53
2023-05-16T16:56:22.849Z,99887.40
2023-05-16T16:58:49.765Z,99888.59
2023-05-16T17:01:16.869Z,99893.88
2023-05-16T17:03:43.904Z,99892.60
2023-05-16T17:06:10.939Z,99889.42
2023-05-16T17:08:37.840Z,99894.48
2023-05-16T17:11:05.520Z,99892.40
2023-05-16T17:13:34.032Z,99893.35
2023-05-16T17:16:01.605Z,99895.23
2023-05-16T17:18:28.483Z,99897.83
2023-05-16T17:20:56.086Z,99893.17
2023-05-16T17:23:23.078Z,99893.11
2023-05-16T17:25:50.282Z,99895.81
2023-05-16T17:28:17.142Z,99892.63
2023-05-16T17:30:44.015Z,99889.30
2023-05-16T17:33:11.002Z,99890.70
2023-05-16T17:35:38.077Z,99895.99
2023-05-16T17:38:05.192Z,99895.81
2023-05-16T17:40:34.197Z,99891.20
2023-05-16T17:43:01.306Z,99894.89
2023-05-16T17:45:28.656Z,99898.94
2023-05-16T17:47:56.183Z,99897.95
2023-05-16T17:50:23.343Z,99898.37
2023-05-16T17:52:50.712Z,99899.91
2023-05-16T17:55:17.830Z,99898.21
2023-05-16T17:57:46.754Z,99900.88
2023-05-16T18:00:15.091Z,99899.79
2023-05-16T18:02:42.601Z,99900.95
2023-05-16T18:05:10.435Z,99903.79
2023-05-16T18:07:37.548Z,99907.23
2023-05-16T18:10:05.174Z,99907.90
2023-05-16T18:12:32.042Z,99910.83
2023-05-16T18:14:58.922Z,99911.33
2023-05-16T18:17:25.758Z,99913.61
2023-05-16T18:19:52.881Z,99913.10
2023-05-16T18:22:19.897Z,99912.67
2023-05-16T18:24:46.935Z,99914.81
2023-05-16T18:27:13.953Z,99910.34
2023-05-16T18:29:41.162Z,99910.04
2023-05-16T18:32:08.155Z,99909.67
2023-05-16T18:34:35.108Z,99910.44
2023-05-16T18:37:02.023Z,99912.27
2023-05-16T18:39:29.031Z,99912.98
2023-05-16T18:41:56.053Z,99907.38
2023-05-16T18:44:23.036Z,99912.98
2023-05-16T18:46:49.910Z,99917.27
2023-05-16T18:49:16.808Z,99916.00
2023-05-16T18:51:44.367Z,99913.95
2023-05-16T18:54:11.170Z,99913.39
2023-05-16T18:56:38.016Z,99914.92
2023-05-16T18:59:04.932Z,99912.36
2023-05-16T19:01:31.806Z,99907.91
2023-05-16T19:03:58.958Z,99911.90
2023-05-16T19:06:26.895Z,99910.63
2023-05-16T19:08:54.889Z,99910.15
2023-05-16T19:11:22.763Z,99911.15
2023-05-16T19:13:49.563Z,99908.77
2023-05-16T19:16:16.542Z,99909.99
2023-05-16T19:18:43.956Z,99912.80
2023-05-16T19:21:13.672Z,99909.45
2023-05-16T19:23:41.166Z,99910.88
2023-05-16T19:26:08.573Z,99909.49
2023-05-16T19:28:35.479Z,99915.40
2023-05-16T19:31:02.388Z,99911.36
2023-05-16T19:33:31.796Z,99914.96
2023-05-16T19:35:58.862Z,99919.04
2023-05-16T19:38:26.614Z,99917.73
2023-05-16T19:40:53.650Z,99914.50
2023-05-16T19:43:20.906Z,99913.55
2023-05-16T19:45:48.093Z,99910.40
2023-05-16T19:48:15.180Z,99909.48
2023-05-16T19:50:42.634Z,99909.34
2023-05-16T19:53:09.500Z,99909.89
2023-05-16T19:55:37.885Z,99909.56
2023-05-16T19:58:05.375Z,99909.50
2023-05-16T20:00:32.313Z,99909.25
2023-05-16T20:02:59.731Z,99908.77
2023-05-16T20:05:27.477Z,99905.58
2023-05-16T20:07:55.504Z,99907.61
2023-05-16T20:10:22.556Z,99899.59
2023-05-16T20:12:49.822Z,99904.54
2023-05-16T20:15:17.146Z,99909.80
2023-05-16T20:17:44.135Z,99909.16
2023-05-16T20:20:11.445Z,99908.23
2023-05-16T20:22:42.023Z,99909.64
2023-05-16T20:25:09.885Z,99907.43
2023-05-16T20:27:36.782Z,99909.55
2023-05-16T20:30:05.101Z,99906.41
2023-05-16T20:32:32.470Z,99909.86
2023-05-16T20:34:59.422Z,99910.40
2023-05-16T20:37:26.828Z,99904.06
2023-05-16T20:39:54.607Z,99908.33
2023-05-16T20:42:21.829Z,99903.80
2023-05-16T20:44:48.725Z,99909.66
2023-05-16T20:47:17.198Z,99908.20
2023-05-16T20:49:44.659Z,99909.48
2023-05-16T20:52:14.358Z,99906.26
2023-05-16T20:54:41.994Z,99908.68
2023-05-16T20:57:08.976Z,99906.77
2023-05-16T20:59:37.540Z,99908.61
2023-05-16T21:02:06.155Z,99906.33
2023-05-16T21:04:33.165Z,99908.06
2023-05-16T21:07:00.219Z,99907.21
2023-05-16T21:09:27.080Z,99903.98
2023-05-16T21:11:53.993Z,99903.66
2023-05-16T21:14:20.803Z,99902.63
2023-05-16T21:16:47.649Z,99904.80
2023-05-16T21:19:14.764Z,99903.59
2023-05-16T21:21:41.690Z,99905.41
2023-05-16T21:24:08.577Z,99903.30
2023-05-16T21:26:35.500Z,99901.95
2023-05-16T21:29:02.404Z,99903.14
2023-05-16T21:31:29.346Z,99901.55
2023-05-16T21:33:56.453Z,99902.93
2023-05-16T21:36:23.397Z,99898.05
2023-05-16T21:38:50.214Z,99896.59
2023-05-16T21:41:18.268Z,99898.41
2023-05-16T21:43:45.405Z,99899.20
2023-05-16T21:46:12.271Z,99897.30
2023-05-16T21:48:39.381Z,99897.41
2023-05-16T21:51:06.526Z,99899.14
2023-05-16T21:53:34.520Z,99899.05
2023-05-16T21:56:01.381Z,99898.71
2023-05-16T21:58:28.294Z,99895.95
2023-05-16T22:00:55.316Z,99893.54
2023-05-16T22:03:22.840Z,99894.30
2023-05-16T22:05:49.921Z,99895.18
2023-05-16T22:08:16.969Z,99894.05
2023-05-16T22:10:44.029Z,99894.40
2023-05-16T22:13:10.864Z,99896.77
2023-05-16T22:15:37.972Z,99892.36
2023-05-16T22:18:05.660Z,99896.90
2023-05-16T22:20:32.677Z,99900.10
2023-05-16T22:22:59.646Z,99903.25
2023-05-16T22:25:26.846Z,99900.67
2023-05-16T22:27:53.959Z,99903.75
2023-05-16T22:30:20.817Z,99910.55
2023-05-16T22:32:47.874Z,99909.21
2023-05-16T22:35:15.036Z,99911.98
2023-05-16T22:37:41.991Z,99911.33
2023-05-16T22:40:09.550Z,99914.16
2023-05-16T22:42:36.504Z,99914.52
2023-05-16T22:45:03.978Z,99910.74
2023-05-16T22:47:31.195Z,99915.96
2023-05-16T22:49:58.070Z,99919.00
2023-05-16T22:52:25.059Z,99918.36
2023-05-16T22:54:52.145Z,99919.60
2023-05-16T22:57:19.113Z,99915.80
2023-05-16T22:59:46.327Z,99918.84
2023-05-16T23:02:13.673Z,99916.67
2023-05-16T23:04:40.706Z,99920.04
2023-05-16T23:07:07.666Z,99919.08
2023-05-16T23:09:34.576Z,99920.73
2023-05-16T23:12:01.928Z,99921.20
2023-05-16T23:14:28.851Z,99923.31
2023-05-16T23:16:55.732Z,99920.02
2023-05-16T23:19:22.736Z,99916.79
2023-05-16T23:21:49.760Z,99916.43
2023-05-16T23:24:17.030Z,99916.85
2023-05-16T23:26:43.968Z,99919.07
2023-05-16T23:29:10.801Z,99922.56
2023-05-16T23:31:37.777Z,99920.66
2023-05-16T23:34:04.746Z,99920.23
2023-05-16T23:36:32.064Z,99917.96
2023-05-16T23:38:58.854Z,99921.50
2023-05-16T23:41:25.796Z,99919.45
2023-05-16T23:43:52.731Z,99924.92
2023-05-16T23:46:19.558Z,99920.34
2023-05-16T23:48:46.607Z,99914.75
2023-05-16T23:51:13.660Z,99921.05
2023-05-16T23:53:40.493Z,99922.64
2023-05-16T23:56:07.867Z,99921.59
2023-05-16T23:58:34.843Z,99921.32
